sensor_id;sensor_type;location;lat;lon;timestamp;temperature;humidity
25024;DHT22;13033;50.936;5.334;2023-10-13T00:02:00;19.20;99.90
25024;DHT22;13033;50.936;5.334;2023-10-13T00:04:29;19.20;99.90
25024;DHT22;13033;50.936;5.334;2023-10-13T00:06:58;19.30;99.90
25024;DHT22;13033;50.936;5.334;2023-10-13T00:09:27;19.30;99.90
25024;DHT22;13033;50.936;5.334;2023-10-13T00:12:07;19.10;99.90
25024;DHT22;13033;50.936;5.334;2023-10-13T00:14:40;19.10;99.90
25024;DHT22;13033;50.936;5.334;2023-10-13T00:17:11;19.00;99.90
25024;DHT22;13033;50.936;5.334;2023-10-13T00:19:45;19.10;99.90
25024;DHT22;13033;50.936;5.334;2023-10-13T00:22:15;19.20;99.90
25024;DHT22;13033;50.936;5.334;2023-10-13T00:24:43;19.00;99.90
25024;DHT22;13033;50.936;5.334;2023-10-13T00:27:10;19.10;99.90
25024;DHT22;13033;50.936;5.334;2023-10-13T00:29:51;19.00;99.90
25024;DHT22;13033;50.936;5.334;2023-10-13T00:32:29;19.10;99.90
25024;DHT22;13033;50.936;5.334;2023-10-13T00:34:57;19.20;99.90
25024;DHT22;13033;50.936;5.334;2023-10-13T00:37:23;19.20;99.90
25024;DHT22;13033;50.936;5.334;2023-10-13T00:39:54;19.30;99.90
25024;DHT22;13033;50.936;5.334;2023-10-13T00:42:24;19.10;99.90
25024;DHT22;13033;50.936;5.334;2023-10-13T00:44:59;18.90;99.90
25024;DHT22;13033;50.936;5.334;2023-10-13T00:47:26;18.90;99.90
25024;DHT22;13033;50.936;5.334;2023-10-13T00:50:00;18.90;99.90
25024;DHT22;13033;50.936;5.334;2023-10-13T00:52:26;18.80;99.90
25024;DHT22;13033;50.936;5.334;2023-10-13T00:54:52;18.80;99.90
25024;DHT22;13033;50.936;5.334;2023-10-13T00:57:19;18.70;99.90
25024;DHT22;13033;50.936;5.334;2023-10-13T00:59:56;18.70;99.90
25024;DHT22;13033;50.936;5.334;2023-10-13T01:02:25;18.70;99.90
25024;DHT22;13033;50.936;5.334;2023-10-13T01:05:04;18.90;99.90
25024;DHT22;13033;50.936;5.334;2023-10-13T01:07:30;18.80;99.90
25024;DHT22;13033;50.936;5.334;2023-10-13T01:09:56;18.90;99.90
25024;DHT22;13033;50.936;5.334;2023-10-13T01:12:22;18.80;99.90
25024;DHT22;13033;50.936;5.334;2023-10-13T01:14:51;18.90;99.90
25024;DHT22;13033;50.936;5.334;2023-10-13T01:17:16;18.80;99.90
25024;DHT22;13033;50.936;5.334;2023-10-13T01:19:43;18.80;99.90
25024;DHT22;13033;50.936;5.334;2023-10-13T01:22:11;18.80;99.90
25024;DHT22;13033;50.936;5.334;2023-10-13T01:24:37;18.70;99.90
25024;DHT22;13033;50.936;5.334;2023-10-13T01:27:05;18.70;99.90
25024;DHT22;13033;50.936;5.334;2023-10-13T01:29:44;18.80;99.90
25024;DHT22;13033;50.936;5.334;2023-10-13T01:32:21;18.80;99.90
25024;DHT22;13033;50.936;5.334;2023-10-13T01:34:46;18.80;99.90
25024;DHT22;13033;50.936;5.334;2023-10-13T01:37:14;18.90;99.90
25024;DHT22;13033;50.936;5.334;2023-10-13T01:39:41;18.90;99.90
25024;DHT22;13033;50.936;5.334;2023-10-13T01:42:07;18.80;99.90
25024;DHT22;13033;50.936;5.334;2023-10-13T01:44:33;18.80;99.90
25024;DHT22;13033;50.936;5.334;2023-10-13T01:47:02;18.90;99.90
25024;DHT22;13033;50.936;5.334;2023-10-13T01:49:34;19.00;99.90
25024;DHT22;13033;50.936;5.334;2023-10-13T01:52:07;19.00;99.90
25024;DHT22;13033;50.936;5.334;2023-10-13T01:54:36;19.10;99.90
25024;DHT22;13033;50.936;5.334;2023-10-13T01:57:06;18.90;99.90
25024;DHT22;13033;50.936;5.334;2023-10-13T01:59:32;19.00;99.90
25024;DHT22;13033;50.936;5.334;2023-10-13T02:01:58;19.00;99.90
25024;DHT22;13033;50.936;5.334;2023-10-13T02:04:27;18.90;99.90
25024;DHT22;13033;50.936;5.334;2023-10-13T02:06:53;19.00;99.90
25024;DHT22;13033;50.936;5.334;2023-10-13T02:09:21;18.90;99.90
25024;DHT22;13033;50.936;5.334;2023-10-13T02:11:54;18.90;99.90
25024;DHT22;13033;50.936;5.334;2023-10-13T02:14:21;18.90;99.90
25024;DHT22;13033;50.936;5.334;2023-10-13T02:16:51;19.00;99.90
25024;DHT22;13033;50.936;5.334;2023-10-13T02:19:21;19.00;99.90
25024;DHT22;13033;50.936;5.334;2023-10-13T02:21:47;18.90;99.90
25024;DHT22;13033;50.936;5.334;2023-10-13T02:24:24;18.70;99.90
25024;DHT22;13033;50.936;5.334;2023-10-13T02:26:56;18.90;99.90
25024;DHT22;13033;50.936;5.334;2023-10-13T02:29:28;18.90;99.90
25024;DHT22;13033;50.936;5.334;2023-10-13T02:31:54;18.80;99.90
25024;DHT22;13033;50.936;5.334;2023-10-13T02:34:21;18.80;99.90
25024;DHT22;13033;50.936;5.334;2023-10-13T02:36:48;18.80;99.90
25024;DHT22;13033;50.936;5.334;2023-10-13T02:39:15;18.80;99.90
25024;DHT22;13033;50.936;5.334;2023-10-13T02:41:41;18.90;99.90
25024;DHT22;13033;50.936;5.334;2023-10-13T02:44:13;19.00;99.90
25024;DHT22;13033;50.936;5.334;2023-10-13T02:46:53;18.90;99.90
25024;DHT22;13033;50.936;5.334;2023-10-13T02:49:22;18.90;99.90
25024;DHT22;13033;50.936;5.334;2023-10-13T02:51:47;18.90;99.90
25024;DHT22;13033;50.936;5.334;2023-10-13T02:54:13;18.80;99.90
25024;DHT22;13033;50.936;5.334;2023-10-13T02:56:44;18.90;99.90
25024;DHT22;13033;50.936;5.334;2023-10-13T02:59:26;18.90;99.90
25024;DHT22;13033;50.936;5.334;2023-10-13T03:02:11;18.90;99.90
25024;DHT22;13033;50.936;5.334;2023-10-13T03:04:53;18.80;99.90
25024;DHT22;13033;50.936;5.334;2023-10-13T03:07:28;18.80;99.90
25024;DHT22;13033;50.936;5.334;2023-10-13T03:09:56;18.90;99.90
25024;DHT22;13033;50.936;5.334;2023-10-13T03:12:35;18.90;99.90
25024;DHT22;13033;50.936;5.334;2023-10-13T03:15:02;18.90;99.90
25024;DHT22;13033;50.936;5.334;2023-10-13T03:17:37;19.00;99.90
25024;DHT22;13033;50.936;5.334;2023-10-13T03:20:15;18.90;99.90
25024;DHT22;13033;50.936;5.334;2023-10-13T03:22:42;18.90;99.90
25024;DHT22;13033;50.936;5.334;2023-10-13T03:25:11;18.80;99.90
25024;DHT22;13033;50.936;5.334;2023-10-13T03:27:43;18.90;99.90
25024;DHT22;13033;50.936;5.334;2023-10-13T03:30:18;18.90;99.90
25024;DHT22;13033;50.936;5.334;2023-10-13T03:32:46;18.90;99.90
25024;DHT22;13033;50.936;5.334;2023-10-13T03:35:15;18.70;99.90
25024;DHT22;13033;50.936;5.334;2023-10-13T03:37:54;18.70;99.90
25024;DHT22;13033;50.936;5.334;2023-10-13T03:40:22;18.80;99.90
25024;DHT22;13033;50.936;5.334;2023-10-13T03:45:40;18.90;99.90
25024;DHT22;13033;50.936;5.334;2023-10-13T03:48:10;18.90;99.90
25024;DHT22;13033;50.936;5.334;2023-10-13T03:50:38;19.00;99.90
25024;DHT22;13033;50.936;5.334;2023-10-13T03:53:15;19.00;99.90
25024;DHT22;13033;50.936;5.334;2023-10-13T03:55:41;18.90;99.90
25024;DHT22;13033;50.936;5.334;2023-10-13T03:58:14;18.90;99.90
25024;DHT22;13033;50.936;5.334;2023-10-13T04:00:40;18.90;99.90
25024;DHT22;13033;50.936;5.334;2023-10-13T04:03:08;18.90;99.90
25024;DHT22;13033;50.936;5.334;2023-10-13T04:05:35;18.90;99.90
25024;DHT22;13033;50.936;5.334;2023-10-13T04:08:03;18.90;99.90
25024;DHT22;13033;50.936;5.334;2023-10-13T04:10:47;18.90;99.90
25024;DHT22;13033;50.936;5.334;2023-10-13T04:13:18;18.90;99.90
25024;DHT22;13033;50.936;5.334;2023-10-13T04:16:03;18.90;99.90
25024;DHT22;13033;50.936;5.334;2023-10-13T04:18:48;19.00;99.90
25024;DHT22;13033;50.936;5.334;2023-10-13T04:21:20;18.90;99.90
25024;DHT22;13033;50.936;5.334;2023-10-13T04:24:08;19.00;99.90
25024;DHT22;13033;50.936;5.334;2023-10-13T04:26:51;19.00;99.90
25024;DHT22;13033;50.936;5.334;2023-10-13T04:29:35;19.10;99.90
25024;DHT22;13033;50.936;5.334;2023-10-13T04:32:19;19.10;99.90
25024;DHT22;13033;50.936;5.334;2023-10-13T04:35:03;19.10;99.90
25024;DHT22;13033;50.936;5.334;2023-10-13T04:37:38;19.10;99.90
25024;DHT22;13033;50.936;5.334;2023-10-13T04:40:20;19.10;99.90
25024;DHT22;13033;50.936;5.334;2023-10-13T04:42:56;19.00;99.90
25024;DHT22;13033;50.936;5.334;2023-10-13T04:45:31;18.90;99.90
25024;DHT22;13033;50.936;5.334;2023-10-13T04:47:58;19.00;99.90
25024;DHT22;13033;50.936;5.334;2023-10-13T04:50:40;19.10;99.90
25024;DHT22;13033;50.936;5.334;2023-10-13T04:53:12;19.10;99.90
25024;DHT22;13033;50.936;5.334;2023-10-13T04:55:58;19.10;99.90
25024;DHT22;13033;50.936;5.334;2023-10-13T04:58:53;19.00;99.90
25024;DHT22;13033;50.936;5.334;2023-10-13T05:01:37;18.90;99.90
25024;DHT22;13033;50.936;5.334;2023-10-13T05:04:25;18.90;99.90
25024;DHT22;13033;50.936;5.334;2023-10-13T05:07:09;19.00;99.90
25024;DHT22;13033;50.936;5.334;2023-10-13T05:09:53;19.00;99.90
25024;DHT22;13033;50.936;5.334;2023-10-13T05:12:37;19.00;99.90
25024;DHT22;13033;50.936;5.334;2023-10-13T05:15:21;18.90;99.90
25024;DHT22;13033;50.936;5.334;2023-10-13T05:18:25;19.00;99.90
25024;DHT22;13033;50.936;5.334;2023-10-13T05:21:09;18.90;99.90
25024;DHT22;13033;50.936;5.334;2023-10-13T05:23:53;18.90;99.90
25024;DHT22;13033;50.936;5.334;2023-10-13T05:26:38;18.90;99.90
25024;DHT22;13033;50.936;5.334;2023-10-13T05:29:21;18.90;99.90
25024;DHT22;13033;50.936;5.334;2023-10-13T05:32:05;18.90;99.90
25024;DHT22;13033;50.936;5.334;2023-10-13T05:34:50;18.90;99.90
25024;DHT22;13033;50.936;5.334;2023-10-13T05:37:34;18.90;99.90
25024;DHT22;13033;50.936;5.334;2023-10-13T05:40:17;18.90;99.90
25024;DHT22;13033;50.936;5.334;2023-10-13T05:43:02;18.90;99.90
25024;DHT22;13033;50.936;5.334;2023-10-13T05:45:46;18.90;99.90
25024;DHT22;13033;50.936;5.334;2023-10-13T05:48:30;19.00;99.90
25024;DHT22;13033;50.936;5.334;2023-10-13T05:51:29;18.80;99.90
25024;DHT22;13033;50.936;5.334;2023-10-13T05:54:03;18.70;99.90
25024;DHT22;13033;50.936;5.334;2023-10-13T05:56:40;18.70;99.90
25024;DHT22;13033;50.936;5.334;2023-10-13T05:59:26;18.70;99.90
25024;DHT22;13033;50.936;5.334;2023-10-13T06:02:10;18.70;99.90
25024;DHT22;13033;50.936;5.334;2023-10-13T06:04:54;18.80;99.90
25024;DHT22;13033;50.936;5.334;2023-10-13T06:07:38;18.90;99.90
25024;DHT22;13033;50.936;5.334;2023-10-13T06:10:22;18.90;99.90
25024;DHT22;13033;50.936;5.334;2023-10-13T06:13:07;18.90;99.90
25024;DHT22;13033;50.936;5.334;2023-10-13T06:15:51;18.90;99.90
25024;DHT22;13033;50.936;5.334;2023-10-13T06:18:35;18.90;99.90
25024;DHT22;13033;50.936;5.334;2023-10-13T06:21:20;18.90;99.90
25024;DHT22;13033;50.936;5.334;2023-10-13T06:24:05;19.00;99.90
25024;DHT22;13033;50.936;5.334;2023-10-13T06:26:50;19.00;99.90
25024;DHT22;13033;50.936;5.334;2023-10-13T06:29:41;19.00;99.90
25024;DHT22;13033;50.936;5.334;2023-10-13T06:32:07;19.00;99.90
25024;DHT22;13033;50.936;5.334;2023-10-13T06:34:37;19.00;99.90
25024;DHT22;13033;50.936;5.334;2023-10-13T06:37:13;18.90;99.90
25024;DHT22;13033;50.936;5.334;2023-10-13T06:39:52;19.00;99.90
25024;DHT22;13033;50.936;5.334;2023-10-13T06:42:23;19.00;99.90
25024;DHT22;13033;50.936;5.334;2023-10-13T06:44:53;19.10;99.90
25024;DHT22;13033;50.936;5.334;2023-10-13T06:47:20;19.10;99.90
25024;DHT22;13033;50.936;5.334;2023-10-13T06:49:47;19.10;99.90
25024;DHT22;13033;50.936;5.334;2023-10-13T06:52:17;19.30;99.90
25024;DHT22;13033;50.936;5.334;2023-10-13T06:54:43;19.20;99.90
25024;DHT22;13033;50.936;5.334;2023-10-13T06:57:09;19.20;99.90
25024;DHT22;13033;50.936;5.334;2023-10-13T06:59:46;19.30;99.90
25024;DHT22;13033;50.936;5.334;2023-10-13T07:02:12;19.40;99.90
25024;DHT22;13033;50.936;5.334;2023-10-13T07:04:50;19.50;99.90
25024;DHT22;13033;50.936;5.334;2023-10-13T07:07:40;19.60;99.90
25024;DHT22;13033;50.936;5.334;2023-10-13T07:10:12;19.70;99.90
25024;DHT22;13033;50.936;5.334;2023-10-13T07:12:38;19.70;99.90
25024;DHT22;13033;50.936;5.334;2023-10-13T07:15:09;19.70;99.90
25024;DHT22;13033;50.936;5.334;2023-10-13T07:17:44;19.60;99.90
25024;DHT22;13033;50.936;5.334;2023-10-13T07:20:10;19.60;99.90
25024;DHT22;13033;50.936;5.334;2023-10-13T07:22:50;19.60;99.90
25024;DHT22;13033;50.936;5.334;2023-10-13T07:25:29;19.60;99.90
25024;DHT22;13033;50.936;5.334;2023-10-13T07:28:02;19.60;99.90
25024;DHT22;13033;50.936;5.334;2023-10-13T07:30:34;19.70;99.90
25024;DHT22;13033;50.936;5.334;2023-10-13T07:33:07;19.80;99.90
25024;DHT22;13033;50.936;5.334;2023-10-13T07:35:36;19.90;99.90
25024;DHT22;13033;50.936;5.334;2023-10-13T07:38:02;19.90;99.90
25024;DHT22;13033;50.936;5.334;2023-10-13T07:40:33;20.00;99.90
25024;DHT22;13033;50.936;5.334;2023-10-13T07:42:58;20.00;99.90
25024;DHT22;13033;50.936;5.334;2023-10-13T07:45:30;20.10;99.90
25024;DHT22;13033;50.936;5.334;2023-10-13T07:48:03;20.20;99.90
25024;DHT22;13033;50.936;5.334;2023-10-13T07:50:39;20.20;99.90
25024;DHT22;13033;50.936;5.334;2023-10-13T07:53:04;20.30;99.90
25024;DHT22;13033;50.936;5.334;2023-10-13T07:55:48;20.30;99.90
25024;DHT22;13033;50.936;5.334;2023-10-13T07:58:22;20.40;99.90
25024;DHT22;13033;50.936;5.334;2023-10-13T08:00:51;20.50;99.90
25024;DHT22;13033;50.936;5.334;2023-10-13T08:03:32;20.60;99.90
25024;DHT22;13033;50.936;5.334;2023-10-13T08:06:09;20.70;99.90
25024;DHT22;13033;50.936;5.334;2023-10-13T08:08:35;20.80;99.90
25024;DHT22;13033;50.936;5.334;2023-10-13T08:11:08;20.90;99.90
25024;DHT22;13033;50.936;5.334;2023-10-13T08:13:55;21.00;99.90
25024;DHT22;13033;50.936;5.334;2023-10-13T08:16:37;21.00;99.90
25024;DHT22;13033;50.936;5.334;2023-10-13T08:19:32;21.20;99.90
25024;DHT22;13033;50.936;5.334;2023-10-13T08:22:11;21.20;99.90
25024;DHT22;13033;50.936;5.334;2023-10-13T08:24:43;21.30;99.90
25024;DHT22;13033;50.936;5.334;2023-10-13T08:27:08;21.30;99.90
25024;DHT22;13033;50.936;5.334;2023-10-13T08:29:46;21.40;99.90
25024;DHT22;13033;50.936;5.334;2023-10-13T08:32:22;21.50;99.90
25024;DHT22;13033;50.936;5.334;2023-10-13T08:35:02;21.50;99.90
25024;DHT22;13033;50.936;5.334;2023-10-13T08:37:31;21.60;99.90
25024;DHT22;13033;50.936;5.334;2023-10-13T08:40:26;21.70;99.90
25024;DHT22;13033;50.936;5.334;2023-10-13T08:43:11;21.70;99.90
25024;DHT22;13033;50.936;5.334;2023-10-13T08:45:39;21.80;99.90
25024;DHT22;13033;50.936;5.334;2023-10-13T08:48:06;21.90;99.90
25024;DHT22;13033;50.936;5.334;2023-10-13T08:50:57;21.90;99.90
25024;DHT22;13033;50.936;5.334;2023-10-13T08:53:29;21.90;99.90
25024;DHT22;13033;50.936;5.334;2023-10-13T08:56:11;21.90;99.90
25024;DHT22;13033;50.936;5.334;2023-10-13T08:58:45;21.90;99.90
25024;DHT22;13033;50.936;5.334;2023-10-13T09:01:39;21.90;99.90
25024;DHT22;13033;50.936;5.334;2023-10-13T09:04:18;22.00;99.90
25024;DHT22;13033;50.936;5.334;2023-10-13T09:06:51;22.00;99.90
25024;DHT22;13033;50.936;5.334;2023-10-13T09:09:51;22.10;99.90
25024;DHT22;13033;50.936;5.334;2023-10-13T09:12:24;22.10;99.90
25024;DHT22;13033;50.936;5.334;2023-10-13T09:15:07;22.10;99.90
25024;DHT22;13033;50.936;5.334;2023-10-13T09:17:50;22.20;99.90
25024;DHT22;13033;50.936;5.334;2023-10-13T09:20:16;22.20;99.90
25024;DHT22;13033;50.936;5.334;2023-10-13T09:22:53;22.30;99.90
25024;DHT22;13033;50.936;5.334;2023-10-13T09:25:29;22.40;99.90
25024;DHT22;13033;50.936;5.334;2023-10-13T09:28:10;22.50;99.90
25024;DHT22;13033;50.936;5.334;2023-10-13T09:30:53;22.40;99.90
25024;DHT22;13033;50.936;5.334;2023-10-13T09:33:25;22.40;99.90
25024;DHT22;13033;50.936;5.334;2023-10-13T09:35:59;22.50;99.90
25024;DHT22;13033;50.936;5.334;2023-10-13T09:38:27;22.40;99.90
25024;DHT22;13033;50.936;5.334;2023-10-13T09:40:53;22.40;99.90
25024;DHT22;13033;50.936;5.334;2023-10-13T09:43:23;22.50;99.90
25024;DHT22;13033;50.936;5.334;2023-10-13T09:45:50;22.40;99.90
25024;DHT22;13033;50.936;5.334;2023-10-13T09:48:38;22.60;99.90
25024;DHT22;13033;50.936;5.334;2023-10-13T09:51:18;22.80;99.90
25024;DHT22;13033;50.936;5.334;2023-10-13T09:54:08;22.80;99.90
25024;DHT22;13033;50.936;5.334;2023-10-13T09:56:48;22.90;99.90
25024;DHT22;13033;50.936;5.334;2023-10-13T09:59:32;22.90;99.90
25024;DHT22;13033;50.936;5.334;2023-10-13T10:02:05;22.90;99.90
25024;DHT22;13033;50.936;5.334;2023-10-13T10:04:34;22.90;99.90
25024;DHT22;13033;50.936;5.334;2023-10-13T10:07:24;23.00;99.90
25024;DHT22;13033;50.936;5.334;2023-10-13T10:10:00;23.10;99.90
25024;DHT22;13033;50.936;5.334;2023-10-13T10:12:45;23.20;99.90
25024;DHT22;13033;50.936;5.334;2023-10-13T10:15:29;23.20;99.90
25024;DHT22;13033;50.936;5.334;2023-10-13T10:18:02;23.10;99.90
25024;DHT22;13033;50.936;5.334;2023-10-13T10:20:33;23.10;99.90
25024;DHT22;13033;50.936;5.334;2023-10-13T10:23:05;23.20;99.90
25024;DHT22;13033;50.936;5.334;2023-10-13T10:25:35;23.20;99.90
25024;DHT22;13033;50.936;5.334;2023-10-13T10:28:06;23.10;99.90
25024;DHT22;13033;50.936;5.334;2023-10-13T10:30:35;22.90;99.90
25024;DHT22;13033;50.936;5.334;2023-10-13T10:33:04;23.20;99.90
25024;DHT22;13033;50.936;5.334;2023-10-13T10:35:58;23.30;99.90
25024;DHT22;13033;50.936;5.334;2023-10-13T10:38:24;23.40;99.90
25024;DHT22;13033;50.936;5.334;2023-10-13T10:40:52;23.40;99.90
25024;DHT22;13033;50.936;5.334;2023-10-13T10:43:26;23.40;99.90
25024;DHT22;13033;50.936;5.334;2023-10-13T10:45:52;23.40;99.90
25024;DHT22;13033;50.936;5.334;2023-10-13T10:48:25;23.30;99.90
25024;DHT22;13033;50.936;5.334;2023-10-13T10:50:57;23.30;99.90
25024;DHT22;13033;50.936;5.334;2023-10-13T10:53:25;23.40;99.90
25024;DHT22;13033;50.936;5.334;2023-10-13T10:56:13;23.40;99.90
25024;DHT22;13033;50.936;5.334;2023-10-13T10:58:59;23.40;99.90
25024;DHT22;13033;50.936;5.334;2023-10-13T11:01:30;23.30;99.90
25024;DHT22;13033;50.936;5.334;2023-10-13T11:04:08;23.40;99.90
25024;DHT22;13033;50.936;5.334;2023-10-13T11:06:37;23.40;99.90
25024;DHT22;13033;50.936;5.334;2023-10-13T11:09:12;23.30;99.90
25024;DHT22;13033;50.936;5.334;2023-10-13T11:11:47;23.40;99.90
25024;DHT22;13033;50.936;5.334;2023-10-13T11:14:33;23.40;99.90
25024;DHT22;13033;50.936;5.334;2023-10-13T11:17:00;23.50;99.90
25024;DHT22;13033;50.936;5.334;2023-10-13T11:19:42;23.40;99.90
25024;DHT22;13033;50.936;5.334;2023-10-13T11:22:15;23.50;99.90
25024;DHT22;13033;50.936;5.334;2023-10-13T11:25:10;23.40;99.90
25024;DHT22;13033;50.936;5.334;2023-10-13T11:27:41;23.40;99.90
25024;DHT22;13033;50.936;5.334;2023-10-13T11:30:17;23.50;99.90
25024;DHT22;13033;50.936;5.334;2023-10-13T11:33:09;23.50;99.90
25024;DHT22;13033;50.936;5.334;2023-10-13T11:35:39;23.50;99.90
25024;DHT22;13033;50.936;5.334;2023-10-13T11:46:10;24.20;99.90
25024;DHT22;13033;50.936;5.334;2023-10-13T11:48:36;24.20;99.90
25024;DHT22;13033;50.936;5.334;2023-10-13T11:51:02;24.20;99.90
25024;DHT22;13033;50.936;5.334;2023-10-13T11:53:35;24.20;99.90
25024;DHT22;13033;50.936;5.334;2023-10-13T11:56:04;24.20;99.90
25024;DHT22;13033;50.936;5.334;2023-10-13T11:58:37;24.20;99.90
25024;DHT22;13033;50.936;5.334;2023-10-13T12:01:03;24.20;99.90
25024;DHT22;13033;50.936;5.334;2023-10-13T12:03:38;24.10;99.90
25024;DHT22;13033;50.936;5.334;2023-10-13T12:06:22;24.00;99.90
25024;DHT22;13033;50.936;5.334;2023-10-13T12:08:59;24.00;99.90
25024;DHT22;13033;50.936;5.334;2023-10-13T12:11:45;24.00;99.90
25024;DHT22;13033;50.936;5.334;2023-10-13T12:14:12;24.10;99.90
25024;DHT22;13033;50.936;5.334;2023-10-13T12:16:47;24.00;99.90
25024;DHT22;13033;50.936;5.334;2023-10-13T12:19:21;23.90;99.90
25024;DHT22;13033;50.936;5.334;2023-10-13T12:21:50;24.00;99.90
25024;DHT22;13033;50.936;5.334;2023-10-13T12:24:20;24.20;99.90
25024;DHT22;13033;50.936;5.334;2023-10-13T12:27:05;24.30;99.90
25024;DHT22;13033;50.936;5.334;2023-10-13T12:29:50;24.40;99.90
25024;DHT22;13033;50.936;5.334;2023-10-13T12:32:18;24.70;99.90
25024;DHT22;13033;50.936;5.334;2023-10-13T12:34:49;24.60;99.90
25024;DHT22;13033;50.936;5.334;2023-10-13T12:37:30;24.70;99.90
25024;DHT22;13033;50.936;5.334;2023-10-13T12:40:07;24.80;99.90
25024;DHT22;13033;50.936;5.334;2023-10-13T12:42:51;24.90;99.90
25024;DHT22;13033;50.936;5.334;2023-10-13T12:45:40;25.00;99.90
25024;DHT22;13033;50.936;5.334;2023-10-13T12:48:23;24.90;99.90
25024;DHT22;13033;50.936;5.334;2023-10-13T12:51:07;24.80;99.90
25024;DHT22;13033;50.936;5.334;2023-10-13T12:56:12;24.80;99.90
25024;DHT22;13033;50.936;5.334;2023-10-13T12:58:37;24.80;99.90
25024;DHT22;13033;50.936;5.334;2023-10-13T13:01:03;24.60;99.90
25024;DHT22;13033;50.936;5.334;2023-10-13T13:03:31;24.40;99.90
25024;DHT22;13033;50.936;5.334;2023-10-13T13:05:58;24.40;99.90
25024;DHT22;13033;50.936;5.334;2023-10-13T13:08:24;24.40;99.90
25024;DHT22;13033;50.936;5.334;2023-10-13T13:10:50;24.10;99.90
25024;DHT22;13033;50.936;5.334;2023-10-13T13:13:17;24.00;99.90
25024;DHT22;13033;50.936;5.334;2023-10-13T13:15:50;24.00;99.90
25024;DHT22;13033;50.936;5.334;2023-10-13T13:18:16;23.90;99.90
25024;DHT22;13033;50.936;5.334;2023-10-13T13:20:41;24.00;99.90
25024;DHT22;13033;50.936;5.334;2023-10-13T13:23:19;23.90;99.90
25024;DHT22;13033;50.936;5.334;2023-10-13T13:25:45;23.80;99.90
25024;DHT22;13033;50.936;5.334;2023-10-13T13:28:11;23.80;99.90
25024;DHT22;13033;50.936;5.334;2023-10-13T13:30:38;23.70;99.90
25024;DHT22;13033;50.936;5.334;2023-10-13T13:33:05;23.70;99.90
25024;DHT22;13033;50.936;5.334;2023-10-13T13:35:40;23.60;99.90
25024;DHT22;13033;50.936;5.334;2023-10-13T13:38:09;23.70;99.90
25024;DHT22;13033;50.936;5.334;2023-10-13T13:40:55;23.70;99.90
25024;DHT22;13033;50.936;5.334;2023-10-13T13:43:22;23.70;99.90
25024;DHT22;13033;50.936;5.334;2023-10-13T13:46:07;23.70;99.90
25024;DHT22;13033;50.936;5.334;2023-10-13T13:48:36;23.70;99.90
25024;DHT22;13033;50.936;5.334;2023-10-13T13:51:06;23.70;99.90
25024;DHT22;13033;50.936;5.334;2023-10-13T13:53:45;23.70;99.90
25024;DHT22;13033;50.936;5.334;2023-10-13T13:56:11;23.60;99.90
25024;DHT22;13033;50.936;5.334;2023-10-13T13:58:42;23.70;99.90
25024;DHT22;13033;50.936;5.334;2023-10-13T14:01:08;23.60;99.90
25024;DHT22;13033;50.936;5.334;2023-10-13T14:03:52;23.60;99.90
25024;DHT22;13033;50.936;5.334;2023-10-13T14:06:19;23.50;99.90
25024;DHT22;13033;50.936;5.334;2023-10-13T14:08:55;23.50;99.90
25024;DHT22;13033;50.936;5.334;2023-10-13T14:11:23;23.40;99.90
25024;DHT22;13033;50.936;5.334;2023-10-13T14:14:12;23.30;99.90
25024;DHT22;13033;50.936;5.334;2023-10-13T14:17:00;23.30;99.90
25024;DHT22;13033;50.936;5.334;2023-10-13T14:19:35;23.20;99.90
25024;DHT22;13033;50.936;5.334;2023-10-13T14:22:05;23.10;99.90
25024;DHT22;13033;50.936;5.334;2023-10-13T14:24:34;23.30;99.90
25024;DHT22;13033;50.936;5.334;2023-10-13T14:27:02;23.20;99.90
25024;DHT22;13033;50.936;5.334;2023-10-13T14:29:37;23.30;99.90
25024;DHT22;13033;50.936;5.334;2023-10-13T14:32:13;23.20;99.90
25024;DHT22;13033;50.936;5.334;2023-10-13T14:34:41;23.10;99.90
25024;DHT22;13033;50.936;5.334;2023-10-13T14:37:07;23.20;99.90
25024;DHT22;13033;50.936;5.334;2023-10-13T14:39:34;23.20;99.90
25024;DHT22;13033;50.936;5.334;2023-10-13T14:42:04;23.10;99.90
25024;DHT22;13033;50.936;5.334;2023-10-13T14:44:33;23.00;99.90
25024;DHT22;13033;50.936;5.334;2023-10-13T14:46:59;23.00;99.90
25024;DHT22;13033;50.936;5.334;2023-10-13T14:49:25;23.00;99.90
25024;DHT22;13033;50.936;5.334;2023-10-13T14:51:51;23.00;99.90
25024;DHT22;13033;50.936;5.334;2023-10-13T14:54:18;23.00;99.90
25024;DHT22;13033;50.936;5.334;2023-10-13T14:56:50;23.00;99.90
25024;DHT22;13033;50.936;5.334;2023-10-13T14:59:20;22.90;99.90
25024;DHT22;13033;50.936;5.334;2023-10-13T15:01:47;23.00;99.90
25024;DHT22;13033;50.936;5.334;2023-10-13T15:04:14;23.00;99.90
25024;DHT22;13033;50.936;5.334;2023-10-13T15:06:40;23.00;99.90
25024;DHT22;13033;50.936;5.334;2023-10-13T15:09:06;23.00;99.90
25024;DHT22;13033;50.936;5.334;2023-10-13T15:11:36;23.00;99.90
25024;DHT22;13033;50.936;5.334;2023-10-13T15:14:04;23.00;99.90
25024;DHT22;13033;50.936;5.334;2023-10-13T15:16:32;22.90;99.90
25024;DHT22;13033;50.936;5.334;2023-10-13T15:18:59;22.90;99.90
25024;DHT22;13033;50.936;5.334;2023-10-13T15:21:29;22.80;99.90
25024;DHT22;13033;50.936;5.334;2023-10-13T15:24:05;22.80;99.90
25024;DHT22;13033;50.936;5.334;2023-10-13T15:26:40;22.70;99.90
25024;DHT22;13033;50.936;5.334;2023-10-13T15:29:10;22.70;99.90
25024;DHT22;13033;50.936;5.334;2023-10-13T15:31:38;22.60;99.90
25024;DHT22;13033;50.936;5.334;2023-10-13T15:34:11;22.60;99.90
25024;DHT22;13033;50.936;5.334;2023-10-13T15:36:42;22.60;99.90
25024;DHT22;13033;50.936;5.334;2023-10-13T15:39:12;22.50;99.90
25024;DHT22;13033;50.936;5.334;2023-10-13T15:41:41;22.50;99.90
25024;DHT22;13033;50.936;5.334;2023-10-13T15:44:15;22.40;99.90
25024;DHT22;13033;50.936;5.334;2023-10-13T15:46:41;22.50;99.90
25024;DHT22;13033;50.936;5.334;2023-10-13T15:49:07;22.40;99.90
25024;DHT22;13033;50.936;5.334;2023-10-13T15:51:33;22.30;99.90
25024;DHT22;13033;50.936;5.334;2023-10-13T15:54:05;22.30;99.90
25024;DHT22;13033;50.936;5.334;2023-10-13T15:56:46;22.20;99.90
25024;DHT22;13033;50.936;5.334;2023-10-13T15:59:13;22.10;99.90
25024;DHT22;13033;50.936;5.334;2023-10-13T16:01:40;22.00;99.90
25024;DHT22;13033;50.936;5.334;2023-10-13T16:04:07;21.80;99.90
25024;DHT22;13033;50.936;5.334;2023-10-13T16:06:43;21.70;99.90
25024;DHT22;13033;50.936;5.334;2023-10-13T16:09:13;21.70;99.90
25024;DHT22;13033;50.936;5.334;2023-10-13T16:11:42;21.70;99.90
25024;DHT22;13033;50.936;5.334;2023-10-13T16:14:09;21.60;99.90
25024;DHT22;13033;50.936;5.334;2023-10-13T16:16:41;21.50;99.90
25024;DHT22;13033;50.936;5.334;2023-10-13T16:19:10;21.30;99.90
25024;DHT22;13033;50.936;5.334;2023-10-13T16:21:36;21.20;99.90
25024;DHT22;13033;50.936;5.334;2023-10-13T16:24:05;21.20;99.90
25024;DHT22;13033;50.936;5.334;2023-10-13T16:26:31;21.20;99.90